Moab, UT (84532)

2:32 PM MST on December 06, 2016 (GMT -0700)
MesoWest | | Change Station

Elev 4476 ft 38.54 °N, 109.51 °W | Updated 1 hour ago

Partly Cloudy
Partly Cloudy
35 °F
Feels Like 35 °F
N
2
Wind Variable Wind from SSE
Gusts 4.0 mph

Today
High -- | Low -- °F
--% Chance of Precip.
Yesterday
High -- | Low -- °F
Precip. -- in
Pressure 29.75 in
Visibility 10.0 miles
Clouds Few 11000 ft
Windchill 35 °F
Dew Point 6 °F
Humidity 29%
Rainfall in
Snow Depth Not available.
7:22 AM 4:56 PM
Waxing Crescent, 45% visible
METAR KCNY 062053Z AUTO VRB03KT 10SM FEW110 03/M16 A2971 RMK AO2 SLP072 T00331156 56040
Pressure 29.75 in
Visibility 10.0 miles
Clouds Few 11000 ft
Windchill 35 °F
Dew Point 6 °F
Humidity 29%
Rainfall in
Snow Depth Not available.
7:22 AM 4:56 PM
Waxing Crescent, 45% visible
METAR KCNY 062053Z AUTO VRB03KT 10SM FEW110 03/M16 A2971 RMK AO2 SLP072 T00331156 56040

10-Day Weather Forecast

Almanac

Astronomy

Dec. 06, 2016 Rise Set
Actual Time
Civil Twilight
Nautical Twilight
Astronomical Twilight
Moon
Length of Visible Light
Length of Day
Tomorrow will be .
, % of the Moon is Illuminated

Today's Extremes

State Highs State Lows

Community

WunderPhotos

Upload Photos

1,956,034 photos uploaded!

WunderBlog® & News

Nearby

Air Quality

  Air Quality AQ Index Pollutant
Not available.

Snow Depth

Station Depth Elevation

Earthquake Activity

City Distance Mag. Time & Date
Minimum magnitude displayed is 2.5.

Coastal Water Temperatures

Place Temperature

Stations

Nearby Weather Stations

Station Location Temp. Windchill Dew Point Humidity Wind Precip. Elev Updated Type
                   

Watches & Warnings

There are currently no watches in effect.